Time;durP1;ratioP1;P1;durP2;ratioP2;P2;SDS_P1;SDS_P2;PMS_P1;PMS_P2;Temp;Humidity;BMP_temperature;BMP_pressure;BME280_temperature;BME280_humidity;BME280_pressure;Samples;Min_cycle;Max_cycle;Signal;HPM_P1;HPM_P2
2023/04/17 00:01:38;;;;;;;26.75;17.85;;;11.40;97.90;;;;;;5029352;28;20022;-77
2023/04/17 00:04:06;;;;;;;22.33;15.60;;;11.30;98.20;;;;;;5028357;28;20053;-78
2023/04/17 00:06:32;;;;;;;31.30;19.55;;;11.40;98.00;;;;;;5028883;28;20095;-77
2023/04/17 00:08:58;;;;;;;32.40;21.50;;;11.40;97.90;;;;;;5010527;28;20025;-78
2023/04/17 00:11:25;;;;;;;28.20;18.67;;;11.40;98.00;;;;;;5029086;28;20034;-77
2023/04/17 00:13:50;;;;;;;24.50;16.80;;;11.30;98.10;;;;;;5011282;28;20061;-78
2023/04/17 00:16:16;;;;;;;29.67;20.90;;;11.40;97.80;;;;;;5029666;28;20077;-78
2023/04/17 00:18:42;;;;;;;24.80;16.00;;;11.40;97.80;;;;;;5029206;28;20029;-78
2023/04/17 00:21:07;;;;;;;31.13;21.98;;;11.30;97.90;;;;;;5028381;28;20029;-77
2023/04/17 00:23:33;;;;;;;34.08;21.40;;;11.30;97.80;;;;;;5028340;28;20552;-76
2023/04/17 00:25:59;;;;;;;33.17;23.23;;;11.30;97.80;;;;;;5028764;28;20033;-78
2023/04/17 00:28:24;;;;;;;30.15;19.48;;;11.30;97.80;;;;;;5028688;28;20093;-77
2023/04/17 00:30:50;;;;;;;20.77;12.05;;;11.30;97.80;;;;;;5029580;28;20132;-77
2023/04/17 00:33:15;;;;;;;32.70;20.73;;;11.40;97.90;;;;;;5028405;28;20068;-79
2023/04/17 00:35:41;;;;;;;27.98;18.10;;;11.40;97.80;;;;;;5028272;28;20084;-78
2023/04/17 00:38:08;;;;;;;35.08;24.10;;;11.30;97.80;;;;;;5028320;28;20049;-77
2023/04/17 00:40:34;;;;;;;38.53;26.58;;;11.30;97.90;;;;;;5005692;28;20033;-76
2023/04/17 00:43:05;;;;;;;37.67;24.42;;;11.30;97.90;;;;;;5001576;28;20025;-77
2023/04/17 00:45:31;;;;;;;31.35;18.67;;;11.30;97.70;;;;;;5022581;28;20109;-76
2023/04/17 00:47:58;;;;;;;38.63;26.08;;;11.40;97.70;;;;;;5018090;28;20049;-76
2023/04/17 00:50:25;;;;;;;33.25;21.15;;;11.30;97.90;;;;;;5030827;28;20022;-77
2023/04/17 00:52:51;;;;;;;43.35;27.52;;;11.30;97.80;;;;;;5013204;28;20025;-77
2023/04/17 00:55:17;;;;;;;41.67;26.52;;;11.30;98.00;;;;;;5028272;28;20028;-77
2023/04/17 00:57:43;;;;;;;34.78;22.23;;;11.20;98.10;;;;;;5010138;28;20029;-78
2023/04/17 01:00:10;;;;;;;31.83;20.75;;;11.30;98.20;;;;;;5028514;28;20029;-77
2023/04/17 01:02:36;;;;;;;42.60;27.70;;;11.30;98.00;;;;;;5007067;28;20050;-77
2023/04/17 01:05:02;;;;;;;36.38;23.70;;;11.30;98.10;;;;;;5007769;28;20057;-77
2023/04/17 01:07:29;;;;;;;34.65;22.95;;;11.30;98.10;;;;;;5008490;28;20515;-76
2023/04/17 01:09:55;;;;;;;41.55;26.60;;;11.30;98.00;;;;;;5007966;28;20022;-76
2023/04/17 01:12:23;;;;;;;39.05;27.20;;;11.30;98.00;;;;;;5006682;28;20449;-78
2023/04/17 01:14:50;;;;;;;37.15;24.60;;;11.30;98.00;;;;;;5007746;28;20026;-78
2023/04/17 01:17:20;;;;;;;40.40;26.05;;;11.30;98.00;;;;;;5007506;28;20030;-76
2023/04/17 01:19:46;;;;;;;;;;;11.40;98.00;;;;;;5007672;28;20080;-78
2023/04/17 01:22:12;;;;;;;41.35;27.20;;;11.40;97.90;;;;;;5006662;28;19913;-78
2023/04/17 01:24:38;;;;;;;42.53;28.15;;;11.30;97.90;;;;;;5007263;28;20092;-77
2023/04/17 01:27:05;;;;;;;29.33;18.92;;;11.30;98.10;;;;;;5008692;28;20029;-78
2023/04/17 01:29:33;;;;;;;42.05;27.65;;;11.30;98.20;;;;;;5007195;28;20762;-76
2023/04/17 01:31:59;;;;;;;47.58;30.48;;;11.30;98.20;;;;;;5006864;28;20025;-75
2023/04/17 01:34:24;;;;;;;30.75;18.75;;;11.30;98.20;;;;;;5006546;28;20072;-76
2023/04/17 01:36:50;;;;;;;47.20;29.15;;;11.30;98.20;;;;;;5005829;28;20488;-77
2023/04/17 01:39:16;;;;;;;49.22;29.33;;;11.30;98.20;;;;;;4999855;28;20034;-77
2023/04/17 01:41:43;;;;;;;42.90;27.10;;;11.30;98.20;;;;;;5004219;28;20036;-78
2023/04/17 01:44:09;;;;;;;49.38;30.85;;;11.30;98.30;;;;;;5006414;28;20026;-77
2023/04/17 01:46:34;;;;;;;39.88;26.77;;;11.30;98.10;;;;;;4998116;28;20092;-78
2023/04/17 01:49:00;;;;;;;45.97;29.67;;;11.30;98.10;;;;;;5007112;28;20084;-78
2023/04/17 01:51:26;;;;;;;53.75;33.42;;;11.20;98.20;;;;;;5008318;28;20032;-77
2023/04/17 01:53:52;;;;;;;43.83;26.60;;;11.20;98.40;;;;;;5008461;28;20022;-78
2023/04/17 01:56:18;;;;;;;48.45;30.50;;;11.20;98.40;;;;;;5006621;28;20377;-76
2023/04/17 01:58:44;;;;;;;38.08;24.48;;;11.20;98.50;;;;;;5009385;28;20140;-77
2023/04/17 02:01:09;;;;;;;51.03;30.17;;;11.10;98.60;;;;;;5008859;28;20018;-77
2023/04/17 02:03:35;;;;;;;53.05;33.88;;;11.10;98.60;;;;;;5022632;28;20444;-78
2023/04/17 02:06:01;;;;;;;50.75;31.25;;;11.10;98.70;;;;;;5027495;28;20454;-78
2023/04/17 02:08:28;;;;;;;28.23;16.85;;;11.10;98.70;;;;;;5027303;28;20036;-78
2023/04/17 02:10:54;;;;;;;34.97;19.10;;;11.10;98.70;;;;;;5009776;28;20029;-77
2023/04/17 02:13:20;;;;;;;47.83;31.92;;;11.10;98.60;;;;;;5009877;28;20022;-79
2023/04/17 02:15:46;;;;;;;53.25;31.10;;;11.10;98.70;;;;;;5027715;28;20439;-78
2023/04/17 02:18:12;;;;;;;53.13;33.78;;;11.00;98.80;;;;;;5027566;28;20358;-78
2023/04/17 02:20:38;;;;;;;39.67;25.45;;;11.00;98.80;;;;;;5028374;28;20075;-77
2023/04/17 02:23:05;;;;;;;44.08;27.98;;;11.00;98.90;;;;;;5012400;28;20018;-76
2023/04/17 02:25:33;;;;;;;52.28;33.75;;;11.00;98.80;;;;;;5021290;28;20022;-78
2023/04/17 02:27:59;;;;;;;54.55;30.55;;;11.00;98.80;;;;;;5038695;28;20053;-78
2023/04/17 02:30:25;;;;;;;33.55;20.40;;;11.00;98.90;;;;;;5031343;28;20103;-78
2023/04/17 02:32:53;;;;;;;19.52;11.40;;;11.00;98.70;;;;;;5030847;28;20029;-77
2023/04/17 02:35:20;;;;;;;37.63;24.42;;;11.10;98.80;;;;;;5030831;28;20029;-79
2023/04/17 02:37:46;;;;;;;36.45;23.08;;;11.00;98.70;;;;;;5030407;28;20044;-77
2023/04/17 02:40:12;;;;;;;49.55;30.95;;;11.10;98.60;;;;;;5013130;28;20388;-77
2023/04/17 02:42:38;;;;;;;41.50;27.13;;;11.00;98.80;;;;;;5025767;28;20060;-77
2023/04/17 02:45:05;;;;;;;51.92;31.90;;;10.90;98.90;;;;;;5031042;28;20049;-77
2023/04/17 02:47:30;;;;;;;32.95;18.88;;;11.00;98.80;;;;;;5029887;28;20063;-78
2023/04/17 02:49:58;;;;;;;23.92;15.60;;;10.90;98.90;;;;;;5013263;28;20029;-77
2023/04/17 02:52:26;;;;;;;23.13;13.23;;;11.00;98.90;;;;;;5031497;28;20454;-77
2023/04/17 02:54:58;;;;;;;22.48;14.43;;;10.90;98.90;;;;;;5031511;28;20025;-77
2023/04/17 02:57:24;;;;;;;36.65;20.45;;;11.00;99.00;;;;;;5033652;28;20047;-78
2023/04/17 02:59:50;;;;;;;36.15;23.40;;;11.00;98.90;;;;;;5014877;28;20101;-78
2023/04/17 03:02:20;;;;;;;46.05;29.98;;;11.00;98.90;;;;;;5013271;28;20049;-78
2023/04/17 03:04:48;;;;;;;19.23;11.90;;;11.00;98.80;;;;;;5012892;28;20026;-77
2023/04/17 03:07:17;;;;;;;25.20;15.88;;;11.00;98.80;;;;;;5030871;28;20025;-77
2023/04/17 03:09:46;;;;;;;25.13;12.38;;;11.00;98.80;;;;;;5030074;28;20100;-77
2023/04/17 03:12:13;;;;;;;33.53;20.67;;;11.00;98.90;;;;;;5030239;28;20049;-77
2023/04/17 03:14:40;;;;;;;21.95;14.15;;;11.00;98.90;;;;;;5009586;28;20049;-77
2023/04/17 03:17:06;;;;;;;15.88;11.05;;;11.00;99.00;;;;;;5012894;28;20403;-77
2023/04/17 03:19:32;;;;;;;19.13;12.55;;;10.90;99.10;;;;;;5026262;28;20424;-76
2023/04/17 03:21:57;;;;;;;19.92;11.48;;;10.90;99.20;;;;;;5030632;28;20030;-77
2023/04/17 03:24:23;;;;;;;17.15;11.57;;;10.90;99.30;;;;;;5011985;28;20096;-75
2023/04/17 03:26:48;;;;;;;20.55;11.52;;;10.90;99.40;;;;;;5012679;28;20024;-75
2023/04/17 03:29:14;;;;;;;36.42;25.88;;;10.90;99.60;;;;;;5011644;28;20014;-75
2023/04/17 03:31:40;;;;;;;40.25;26.98;;;10.80;99.40;;;;;;5030016;28;20025;-76
2023/04/17 03:34:06;;;;;;;22.27;14.55;;;10.80;99.30;;;;;;5012294;28;20020;-77
2023/04/17 03:36:32;;;;;;;22.67;15.35;;;10.80;99.30;;;;;;5028993;28;20029;-76
2023/04/17 03:38:58;;;;;;;26.98;15.93;;;10.90;99.30;;;;;;5029233;28;20022;-77
2023/04/17 03:41:23;;;;;;;35.05;23.75;;;10.90;99.40;;;;;;5029639;28;20064;-78
2023/04/17 03:43:49;;;;;;;30.88;21.63;;;10.90;99.20;;;;;;5029610;28;20084;-77
2023/04/17 03:46:14;;;;;;;41.92;29.15;;;10.90;99.10;;;;;;5030658;28;20034;-77
2023/04/17 03:48:40;;;;;;;46.33;28.83;;;10.90;98.90;;;;;;5030591;28;20071;-76
2023/04/17 03:51:06;;;;;;;40.85;27.40;;;10.90;99.00;;;;;;5030390;28;20523;-77
2023/04/17 03:53:31;;;;;;;43.55;29.60;;;10.90;99.00;;;;;;5030667;28;20476;-76
2023/04/17 03:55:57;;;;;;;49.88;33.45;;;10.90;98.90;;;;;;5031237;28;20037;-77
2023/04/17 03:58:23;;;;;;;24.08;15.10;;;11.00;98.80;;;;;;5030635;28;20029;-78
2023/04/17 04:00:54;;;;;;;28.42;17.52;;;11.00;98.80;;;;;;5031175;28;20029;-77
2023/04/17 04:03:23;;;;;;;17.50;12.10;;;11.00;98.90;;;;;;5029734;28;20041;-78
2023/04/17 04:05:49;;;;;;;19.42;11.43;;;10.90;99.00;;;;;;5030741;28;20033;-78
2023/04/17 04:08:15;;;;;;;16.40;10.38;;;10.90;99.00;;;;;;5012972;28;20029;-77
2023/04/17 04:10:43;;;;;;;27.15;17.92;;;10.90;99.20;;;;;;5029695;28;20044;-77
2023/04/17 04:13:09;;;;;;;27.85;18.50;;;10.80;99.20;;;;;;5028858;28;20036;-78
2023/04/17 04:15:35;;;;;;;40.78;25.67;;;10.80;99.20;;;;;;5028543;28;20136;-78
2023/04/17 04:18:01;;;;;;;26.27;18.30;;;10.70;99.20;;;;;;5028586;28;20100;-80
2023/04/17 04:20:27;;;;;;;40.15;24.55;;;10.80;99.30;;;;;;5029235;28;20021;-78
2023/04/17 04:22:56;;;;;;;44.33;27.55;;;10.80;99.20;;;;;;5028788;28;20468;-77
2023/04/17 04:25:22;;;;;;;34.97;22.60;;;10.80;99.10;;;;;;5028059;28;20022;-77
2023/04/17 04:27:50;;;;;;;35.42;23.67;;;10.80;99.10;;;;;;5029056;28;20022;-78
2023/04/17 04:30:16;;;;;;;39.33;23.98;;;10.80;99.10;;;;;;5011101;28;20112;-78
2023/04/17 04:32:44;;;;;;;30.10;19.33;;;10.80;99.10;;;;;;5028844;28;20108;-78
2023/04/17 04:35:10;;;;;;;19.98;13.00;;;10.80;99.20;;;;;;5011056;28;20082;-79
2023/04/17 04:37:36;;;;;;;32.80;23.17;;;10.80;99.30;;;;;;5010769;28;20030;-77
2023/04/17 04:40:09;;;;;;;34.00;20.95;;;10.80;99.20;;;;;;5029609;28;20037;-76
2023/04/17 04:42:36;;;;;;;38.80;25.80;;;10.80;99.20;;;;;;5031219;28;20029;-77
2023/04/17 04:45:03;;;;;;;41.97;28.45;;;10.80;99.20;;;;;;5030367;28;20152;-78
2023/04/17 04:47:29;;;;;;;53.03;33.15;;;10.80;99.30;;;;;;5025833;28;20863;-77
2023/04/17 04:49:55;;;;;;;47.67;31.48;;;10.70;99.30;;;;;;5028508;28;20079;-78
2023/04/17 04:52:21;;;;;;;49.17;32.85;;;10.80;99.40;;;;;;5024788;28;20021;-78
2023/04/17 04:54:46;;;;;;;28.70;18.63;;;10.80;99.30;;;;;;5028677;28;20058;-79
2023/04/17 04:57:15;;;;;;;47.10;31.75;;;10.80;99.30;;;;;;5028689;28;20116;-78
2023/04/17 04:59:41;;;;;;;51.42;31.08;;;10.80;99.40;;;;;;5029057;28;20017;-78
2023/04/17 05:02:07;;;;;;;37.70;23.65;;;10.80;99.30;;;;;;5030022;28;20116;-77
2023/04/17 05:04:32;;;;;;;40.20;23.98;;;10.80;99.40;;;;;;5012896;28;20099;-78
2023/04/17 05:06:58;;;;;;;54.10;33.88;;;10.80;99.30;;;;;;5032091;28;20144;-78
2023/04/17 05:09:24;;;;;;;46.20;29.73;;;10.80;99.40;;;;;;5028521;28;20029;-78
2023/04/17 05:11:52;;;;;;;46.03;29.65;;;10.80;99.40;;;;;;5011423;28;20018;-78
2023/04/17 05:14:18;;;;;;;24.65;16.38;;;10.70;99.50;;;;;;5027229;28;20029;-77
2023/04/17 05:16:44;;;;;;;39.67;25.00;;;10.70;99.60;;;;;;5006324;28;20034;-77
2023/04/17 05:19:11;;;;;;;25.58;14.02;;;10.60;99.60;;;;;;5024444;28;20029;-78
2023/04/17 05:21:36;;;;;;;44.67;27.88;;;10.70;99.70;;;;;;5016420;28;20037;-78
2023/04/17 05:24:02;;;;;;;37.38;24.05;;;10.60;99.70;;;;;;5010121;28;20018;-76
2023/04/17 05:26:27;;;;;;;35.50;24.63;;;10.60;99.80;;;;;;5022735;28;20026;-76
2023/04/17 05:28:53;;;;;;;48.10;30.90;;;10.70;99.80;;;;;;5018212;28;20515;-77
2023/04/17 05:31:19;;;;;;;47.45;29.85;;;10.60;99.80;;;;;;5010775;28;20033;-77
2023/04/17 05:33:45;;;;;;;32.80;18.42;;;10.60;99.90;;;;;;5028964;28;20013;-77
2023/04/17 05:36:10;;;;;;;51.55;33.80;;;10.80;99.80;;;;;;5028409;28;20434;-77
2023/04/17 05:38:36;;;;;;;52.38;33.13;;;10.80;99.70;;;;;;5027293;28;20017;-78
2023/04/17 05:41:02;;;;;;;46.22;29.63;;;10.80;99.90;;;;;;5027666;28;20484;-78
2023/04/17 05:43:27;;;;;;;49.88;33.78;;;10.80;99.70;;;;;;5027402;28;20048;-77
2023/04/17 05:45:53;;;;;;;44.75;29.77;;;10.80;99.60;;;;;;5006333;28;20188;-77
2023/04/17 05:48:19;;;;;;;46.53;30.75;;;10.90;99.60;;;;;;5026244;28;20506;-77
2023/04/17 05:50:44;;;;;;;48.42;31.02;;;10.90;99.70;;;;;;5020962;28;20032;-76
2023/04/17 05:53:10;;;;;;;55.53;36.05;;;10.90;99.60;;;;;;5027722;28;20029;-75
2023/04/17 05:55:36;;;;;;;46.10;27.58;;;10.90;99.60;;;;;;5009291;28;20075;-78
2023/04/17 05:58:01;;;;;;;38.60;22.85;;;10.80;99.70;;;;;;5010450;28;20048;-79
2023/04/17 06:00:27;;;;;;;41.05;27.10;;;11.00;99.90;;;;;;5009965;28;20028;-80
2023/04/17 06:02:53;;;;;;;38.17;24.05;;;11.10;99.60;;;;;;5030094;28;20407;-80
2023/04/17 06:05:19;;;;;;;36.97;23.65;;;11.30;99.50;;;;;;5031077;28;20167;-80
2023/04/17 06:07:45;;;;;;;35.13;23.60;;;11.40;99.30;;;;;;5031044;28;20109;-80
2023/04/17 06:10:11;;;;;;;44.22;29.00;;;11.50;98.90;;;;;;5031482;28;20021;-82
2023/04/17 06:12:37;;;;;;;38.78;24.73;;;11.60;98.60;;;;;;5013704;28;20049;-80
2023/04/17 06:15:03;;;;;;;34.15;22.65;;;11.60;98.50;;;;;;5031632;28;20495;-81
2023/04/17 06:17:30;;;;;;;38.85;25.33;;;11.70;98.40;;;;;;5031210;28;20475;-80
2023/04/17 06:19:55;;;;;;;34.60;24.35;;;11.60;98.30;;;;;;5008407;28;20025;-80
2023/04/17 06:22:21;;;;;;;43.25;27.40;;;11.60;98.20;;;;;;5012369;28;20018;-80
2023/04/17 06:24:47;;;;;;;35.10;24.17;;;11.60;98.20;;;;;;5030392;28;20028;-80
2023/04/17 06:27:12;;;;;;;32.72;20.70;;;11.60;98.40;;;;;;5030960;28;20488;-81
2023/04/17 06:29:38;;;;;;;22.77;15.40;;;11.70;98.10;;;;;;5030134;28;20029;-81
2023/04/17 06:32:05;;;;;;;35.85;25.05;;;11.90;97.80;;;;;;5029769;28;20369;-80
2023/04/17 06:34:30;;;;;;;32.75;22.08;;;12.00;97.40;;;;;;5025219;28;20395;-81
2023/04/17 06:36:57;;;;;;;27.75;17.42;;;12.20;97.30;;;;;;5030626;28;20044;-81
2023/04/17 06:39:23;;;;;;;36.10;23.13;;;12.20;97.00;;;;;;5030892;28;20025;-77
2023/04/17 06:41:49;;;;;;;40.10;25.25;;;12.40;96.80;;;;;;5031160;28;20033;-78
2023/04/17 06:44:15;;;;;;;33.30;23.13;;;12.40;96.70;;;;;;5031127;28;20022;-79
2023/04/17 06:46:41;;;;;;;32.25;22.58;;;12.40;96.50;;;;;;5012919;28;20017;-79
2023/04/17 06:49:06;;;;;;;35.53;23.17;;;12.50;96.50;;;;;;5031303;28;20087;-80
2023/04/17 06:51:32;;;;;;;34.00;22.73;;;12.40;96.50;;;;;;5030633;28;20021;-81
2023/04/17 06:53:58;;;;;;;38.83;26.02;;;12.30;96.70;;;;;;5011205;28;20565;-81
2023/04/17 06:56:24;;;;;;;33.80;23.27;;;12.50;96.40;;;;;;5010621;28;20037;-80
2023/04/17 06:58:51;;;;;;;25.33;16.42;;;12.40;96.20;;;;;;5031016;28;20412;-80
2023/04/17 07:01:16;;;;;;;38.47;24.95;;;12.30;96.20;;;;;;5029903;28;20049;-81
2023/04/17 07:03:42;;;;;;;35.67;25.65;;;12.40;96.30;;;;;;5030665;28;20050;-79
2023/04/17 07:06:08;;;;;;;25.20;15.02;;;12.30;96.40;;;;;;5013124;28;20022;-80
2023/04/17 07:08:34;;;;;;;35.80;24.48;;;12.30;96.30;;;;;;5012130;28;20049;-80
2023/04/17 07:11:01;;;;;;;26.50;16.05;;;12.30;96.10;;;;;;5013337;28;20103;-79
2023/04/17 07:13:31;;;;;;;24.95;16.75;;;12.40;96.10;;;;;;5027527;28;20033;-78
2023/04/17 07:15:58;;;;;;;30.70;20.05;;;12.60;95.80;;;;;;5030731;28;20029;-80
2023/04/17 07:18:28;;;;;;;32.88;19.52;;;12.90;95.40;;;;;;5023561;28;20109;-80
2023/04/17 07:20:54;;;;;;;;;;;13.10;95.00;;;;;;5030515;28;20029;-80
2023/04/17 07:23:21;;;;;;;43.17;28.33;;;13.10;94.80;;;;;;5030088;28;19912;-79
2023/04/17 07:25:46;;;;;;;43.10;29.48;;;12.90;94.80;;;;;;5028728;28;20056;-79
2023/04/17 07:28:13;;;;;;;30.30;18.63;;;12.70;95.00;;;;;;5030223;28;20380;-80
2023/04/17 07:30:40;;;;;;;36.65;23.13;;;12.60;95.50;;;;;;5020727;28;20037;-79
2023/04/17 07:33:06;;;;;;;38.25;25.45;;;12.70;95.20;;;;;;5024847;28;20033;-80
2023/04/17 07:35:31;;;;;;;34.72;21.92;;;12.80;95.00;;;;;;5009819;28;20022;-79
2023/04/17 07:38:00;;;;;;;27.23;17.75;;;12.80;95.00;;;;;;5024259;28;20033;-79
2023/04/17 07:40:26;;;;;;;30.85;21.60;;;12.80;95.00;;;;;;5026608;28;20029;-79
2023/04/17 07:42:51;;;;;;;38.20;25.05;;;13.00;94.90;;;;;;5015470;28;20034;-80
2023/04/17 07:45:17;;;;;;;38.95;27.15;;;12.90;94.70;;;;;;5035112;28;20032;-79
2023/04/17 07:47:43;;;;;;;43.83;28.88;;;12.80;94.80;;;;;;5027145;28;20022;-80
2023/04/17 07:50:08;;;;;;;35.55;22.17;;;12.80;95.10;;;;;;5030334;28;20036;-81
2023/04/17 07:52:34;;;;;;;41.00;26.77;;;12.70;95.10;;;;;;5020207;28;20084;-81
2023/04/17 07:55:00;;;;;;;44.63;31.17;;;12.80;95.10;;;;;;5029330;28;20037;-78
2023/04/17 07:57:25;;;;;;;35.10;21.98;;;12.60;95.10;;;;;;5011399;28;20034;-80
2023/04/17 07:59:54;;;;;;;35.22;24.13;;;12.60;95.20;;;;;;5031551;28;20029;-79
2023/04/17 08:02:20;;;;;;;37.83;25.15;;;12.80;95.10;;;;;;5022347;28;20103;-79
2023/04/17 08:04:46;;;;;;;26.83;17.92;;;12.90;94.80;;;;;;5011506;28;20033;-80
2023/04/17 08:07:11;;;;;;;32.05;21.05;;;12.70;94.90;;;;;;5024447;28;20037;-79
2023/04/17 08:09:37;;;;;;;33.60;22.85;;;12.80;95.30;;;;;;5027061;28;20045;-80
2023/04/17 08:12:04;;;;;;;29.67;20.40;;;12.80;94.90;;;;;;5019013;28;20038;-80
2023/04/17 08:14:30;;;;;;;28.75;20.10;;;12.90;94.90;;;;;;5022056;28;20026;-80
2023/04/17 08:16:56;;;;;;;43.58;27.50;;;12.90;94.80;;;;;;5024895;28;20032;-81
2023/04/17 08:19:21;;;;;;;26.95;18.83;;;12.90;94.90;;;;;;5010961;28;20108;-82
2023/04/17 08:21:48;;;;;;;31.38;22.15;;;12.90;94.90;;;;;;5027393;28;20561;-81
2023/04/17 08:24:15;;;;;;;24.98;16.80;;;12.90;95.00;;;;;;5007011;28;20685;-80
2023/04/17 08:26:40;;;;;;;34.42;24.08;;;12.80;95.00;;;;;;5025709;28;20033;-81
2023/04/17 08:29:08;;;;;;;26.40;18.45;;;12.80;95.20;;;;;;4991508;28;20030;-81
2023/04/17 08:31:38;;;;;;;36.83;25.73;;;12.70;95.20;;;;;;5027543;28;20024;-81
2023/04/17 08:34:04;;;;;;;34.20;22.30;;;12.90;95.20;;;;;;5027686;28;20029;-81
2023/04/17 08:36:30;;;;;;;39.45;26.52;;;12.90;95.20;;;;;;5028215;28;20026;-84
2023/04/17 08:38:56;;;;;;;38.47;25.60;;;13.00;95.30;;;;;;5029182;28;20052;-82
2023/04/17 08:41:25;;;;;;;37.40;26.00;;;13.00;95.30;;;;;;5023906;28;20403;-82
2023/04/17 08:43:52;;;;;;;30.70;21.25;;;13.00;95.70;;;;;;5024969;28;20648;-81
2023/04/17 08:46:20;;;;;;;29.73;19.10;;;13.10;95.70;;;;;;5007648;28;20037;-80
2023/04/17 08:48:46;;;;;;;30.10;20.75;;;13.30;95.00;;;;;;5025134;28;20040;-80
2023/04/17 08:51:12;;;;;;;34.70;23.98;;;13.60;94.40;;;;;;5027409;28;20025;-79
2023/04/17 08:53:38;;;;;;;24.02;17.58;;;13.80;94.70;;;;;;5025185;28;20021;-80
2023/04/17 08:56:05;;;;;;;30.73;19.75;;;13.80;94.00;;;;;;5027385;28;20041;-80
2023/04/17 08:58:34;;;;;;;26.52;20.10;;;14.00;93.60;;;;;;5027601;28;20025;-79
2023/04/17 09:01:09;;;;;;;34.30;23.10;;;14.20;93.20;;;;;;5026141;28;20745;-80
2023/04/17 09:03:47;;;;;;;32.78;21.98;;;14.30;93.00;;;;;;5026824;28;20678;-80
2023/04/17 09:06:14;;;;;;;27.55;19.55;;;14.30;93.10;;;;;;5003092;28;20072;-78
2023/04/17 09:08:56;;;;;;;28.13;21.00;;;14.30;93.30;;;;;;5026402;28;20036;-78
2023/04/17 09:11:22;;;;;;;35.67;26.70;;;14.40;93.20;;;;;;5027873;28;20100;-80
2023/04/17 09:13:47;;;;;;;37.22;23.40;;;14.50;93.40;;;;;;5025737;28;20821;-82
2023/04/17 09:16:18;;;;;;;34.33;24.58;;;14.60;93.60;;;;;;5027186;28;20033;-80
2023/04/17 09:18:45;;;;;;;33.70;23.30;;;14.60;92.90;;;;;;5023632;28;20051;-81
2023/04/17 09:21:12;;;;;;;24.70;17.65;;;14.50;92.60;;;;;;5026770;28;20395;-82
2023/04/17 09:23:54;;;;;;;36.60;28.58;;;14.40;92.90;;;;;;5026783;28;20113;-80
2023/04/17 09:26:24;;;;;;;26.05;19.63;;;14.50;93.00;;;;;;5004132;28;20574;-81
2023/04/17 09:29:10;;;;;;;24.73;18.90;;;14.50;92.90;;;;;;5027925;28;20369;-81
2023/04/17 09:31:37;;;;;;;30.80;18.55;;;14.60;92.90;;;;;;5024099;28;20029;-81
2023/04/17 09:34:08;;;;;;;29.75;21.35;;;14.70;92.70;;;;;;5025707;28;20833;-81
2023/04/17 09:36:38;;;;;;;;;;;14.80;92.40;;;;;;5027597;28;20282;-82
2023/04/17 09:39:17;;;;;;;24.90;18.48;;;14.80;92.20;;;;;;5027096;28;19909;-81
2023/04/17 09:41:43;;;;;;;36.87;26.90;;;14.80;92.50;;;;;;5015057;28;20017;-78
2023/04/17 09:44:11;;;;;;;29.08;21.38;;;14.80;92.20;;;;;;5028049;28;20318;-79
2023/04/17 09:46:47;;;;;;;35.25;24.05;;;14.80;92.40;;;;;;5025534;28;20482;-79
2023/04/17 09:49:32;;;;;;;33.15;22.52;;;15.00;92.10;;;;;;5028195;28;20033;-80
2023/04/17 09:51:58;;;;;;;23.92;16.17;;;14.90;91.80;;;;;;5027560;28;20021;-80
2023/04/17 09:54:25;;;;;;;22.83;17.02;;;14.90;92.30;;;;;;5027155;28;20388;-78
2023/04/17 09:56:54;;;;;;;27.10;20.08;;;14.90;92.30;;;;;;5027275;28;20122;-80
2023/04/17 09:59:22;;;;;;;28.50;20.77;;;14.90;91.80;;;;;;5009867;28;20120;-80
2023/04/17 10:01:49;;;;;;;29.33;21.50;;;14.80;91.60;;;;;;5014031;28;20096;-80
2023/04/17 10:04:15;;;;;;;21.08;16.52;;;14.70;91.80;;;;;;5027338;28;20057;-79
2023/04/17 10:06:40;;;;;;;21.75;14.38;;;14.80;92.30;;;;;;5027542;28;20064;-79
2023/04/17 10:09:07;;;;;;;24.20;18.17;;;15.00;92.70;;;;;;5025058;28;20048;-80
2023/04/17 10:11:39;;;;;;;31.88;21.58;;;15.10;91.50;;;;;;5015558;28;20057;-81
2023/04/17 10:14:32;;;;;;;31.38;21.67;;;15.10;91.30;;;;;;5026602;28;20031;-77
2023/04/17 10:17:23;;;;;;;20.73;15.73;;;15.10;91.10;;;;;;5028444;28;20063;-77
2023/04/17 10:19:49;;;;;;;24.30;15.65;;;15.30;91.80;;;;;;5028920;28;20026;-79
2023/04/17 10:22:15;;;;;;;22.30;17.00;;;15.40;91.40;;;;;;5022410;28;20080;-79
2023/04/17 10:24:46;;;;;;;27.67;18.55;;;15.60;91.00;;;;;;5027079;28;20017;-78
2023/04/17 10:27:23;;;;;;;19.98;13.57;;;15.70;90.80;;;;;;5023457;28;20028;-79
2023/04/17 10:30:03;;;;;;;26.27;15.57;;;15.80;91.30;;;;;;5028771;28;20025;-80
2023/04/17 10:32:33;;;;;;;23.52;18.23;;;16.00;91.10;;;;;;5003333;28;20037;-81
2023/04/17 10:35:00;;;;;;;21.77;14.07;;;16.20;90.60;;;;;;5009361;28;20481;-78
2023/04/17 10:37:51;;;;;;;21.58;15.73;;;16.40;90.80;;;;;;5027206;28;20488;-77
2023/04/17 10:40:25;;;;;;;24.33;16.02;;;16.60;89.40;;;;;;5027211;28;20014;-76
2023/04/17 10:43:21;;;;;;;20.45;15.65;;;16.70;87.70;;;;;;5010025;28;20107;-78
2023/04/17 10:45:55;;;;;;;16.85;12.68;;;16.70;88.40;;;;;;5021937;28;20200;-77
2023/04/17 10:48:36;;;;;;;20.35;13.60;;;16.80;90.00;;;;;;5024403;28;20083;-79
2023/04/17 10:51:21;;;;;;;21.45;16.77;;;16.90;90.00;;;;;;5011630;28;20479;-76
2023/04/17 10:53:48;;;;;;;22.92;12.38;;;16.80;87.30;;;;;;5029615;28;20018;-77
2023/04/17 10:56:38;;;;;;;16.27;11.30;;;16.90;90.70;;;;;;5015357;28;20090;-77
2023/04/17 10:59:19;;;;;;;17.55;12.70;;;17.00;90.40;;;;;;5019303;28;20418;-77
2023/04/17 11:01:48;;;;;;;18.63;12.60;;;17.20;90.00;;;;;;5031484;28;20018;-77
2023/04/17 11:04:24;;;;;;;18.70;14.32;;;17.30;89.50;;;;;;5030455;28;20014;-76
2023/04/17 11:06:54;;;;;;;20.67;13.23;;;17.30;88.40;;;;;;5028608;28;20033;-76
2023/04/17 11:09:21;;;;;;;15.07;10.82;;;17.40;89.20;;;;;;5012441;28;20428;-77
2023/04/17 11:11:48;;;;;;;25.45;17.70;;;17.40;90.10;;;;;;5021801;28;20098;-77
2023/04/17 11:14:21;;;;;;;31.70;21.67;;;17.50;84.50;;;;;;5021250;28;20048;-76
2023/04/17 11:16:49;;;;;;;19.92;14.15;;;17.70;82.70;;;;;;5028660;28;20037;-77
2023/04/17 11:19:20;;;;;;;22.25;14.45;;;17.80;85.60;;;;;;5021980;28;20049;-77
2023/04/17 11:21:51;;;;;;;15.40;11.63;;;18.00;87.90;;;;;;5021784;28;20494;-77
2023/04/17 11:24:23;;;;;;;17.00;12.70;;;18.20;88.70;;;;;;5030335;28;20030;-77
2023/04/17 11:26:49;;;;;;;16.20;11.68;;;18.30;85.70;;;;;;5029773;28;20041;-77
2023/04/17 11:29:20;;;;;;;14.60;10.18;;;18.30;85.80;;;;;;5012304;28;20018;-77
2023/04/17 11:31:47;;;;;;;16.15;12.25;;;18.40;88.40;;;;;;5029941;28;20100;-76
2023/04/17 11:34:15;;;;;;;18.25;13.10;;;18.50;86.90;;;;;;5025940;28;20029;-76
2023/04/17 11:36:51;;;;;;;15.07;10.27;;;18.60;84.80;;;;;;5023622;28;20036;-77
2023/04/17 11:39:22;;;;;;;18.77;11.82;;;18.70;87.50;;;;;;5024847;28;20034;-77
2023/04/17 11:41:50;;;;;;;17.73;12.55;;;18.90;83.10;;;;;;5025293;28;20056;-76
2023/04/17 11:44:17;;;;;;;16.63;13.32;;;19.00;74.90;;;;;;5029154;28;20029;-75
2023/04/17 11:46:49;;;;;;;14.75;10.10;;;19.30;80.40;;;;;;5022367;28;20029;-76
2023/04/17 11:49:15;;;;;;;12.07;8.57;;;19.50;83.40;;;;;;5034598;28;20075;-75
2023/04/17 11:51:45;;;;;;;14.95;11.00;;;19.60;82.60;;;;;;5032784;28;20052;-77
2023/04/17 11:54:19;;;;;;;;;;;19.80;83.10;;;;;;5032015;28;20036;-77
2023/04/17 11:56:58;;;;;;;14.00;10.32;;;20.00;85.10;;;;;;5033372;28;19927;-76
2023/04/17 11:59:38;;;;;;;13.90;10.97;;;20.10;80.70;;;;;;5027884;28;20036;-76
2023/04/17 12:02:06;;;;;;;14.35;9.68;;;20.10;76.50;;;;;;5026361;28;20104;-76
2023/04/17 12:04:33;;;;;;;22.13;13.70;;;20.10;79.10;;;;;;5011312;28;20065;-76
2023/04/17 12:07:03;;;;;;;20.02;12.15;;;20.10;74.50;;;;;;5028510;28;20030;-80
2023/04/17 12:09:30;;;;;;;16.52;10.02;;;20.10;79.50;;;;;;5026963;28;20034;-79
2023/04/17 12:12:03;;;;;;;15.43;10.57;;;20.20;79.20;;;;;;5029654;28;20040;-81
2023/04/17 12:14:29;;;;;;;12.73;8.93;;;20.30;81.90;;;;;;5023189;28;20520;-81
2023/04/17 12:16:54;;;;;;;14.18;9.20;;;20.40;81.00;;;;;;5029266;28;20045;-80
2023/04/17 12:19:20;;;;;;;16.63;12.23;;;20.60;83.10;;;;;;5029295;28;20454;-79
2023/04/17 12:21:50;;;;;;;11.70;8.75;;;20.60;72.70;;;;;;5029544;28;20036;-80
2023/04/17 12:24:18;;;;;;;;;;;20.70;83.40;;;;;;5012871;28;20025;-80
2023/04/17 12:26:48;;;;;;;13.50;9.25;;;20.90;82.90;;;;;;5029344;28;19905;-79
2023/04/17 12:29:14;;;;;;;13.00;8.48;;;20.80;82.60;;;;;;5027809;28;20040;-77
2023/04/17 12:31:40;;;;;;;12.55;8.52;;;20.80;82.50;;;;;;5029036;28;20566;-77